Time;durP1;ratioP1;P1;durP2;ratioP2;P2;SDS_P1;SDS_P2;PMS_P1;PMS_P2;Temp;Humidity;BMP_temperature;BMP_pressure;BME280_temperature;BME280_humidity;BME280_pressure;Samples;Min_cycle;Max_cycle;Signal;HPM_P1;HPM_P2
2023/03/07 00:00:42;;;;;;;15.50;11.30;;;6.50;44.00;;;;;;5013722;28;20233;-53
2023/03/07 00:03:11;;;;;;;17.60;10.63;;;6.50;44.00;;;;;;5013255;28;20182;-54
2023/03/07 00:05:37;;;;;;;20.67;12.80;;;6.60;44.00;;;;;;5013600;28;20701;-52
2023/03/07 00:08:03;;;;;;;19.35;12.52;;;6.60;43.90;;;;;;5013413;28;20175;-53
2023/03/07 00:10:29;;;;;;;20.08;11.85;;;6.60;43.80;;;;;;5013652;28;20558;-54
2023/03/07 00:12:55;;;;;;;17.80;12.10;;;6.60;43.90;;;;;;5013318;28;20175;-52
2023/03/07 00:15:21;;;;;;;19.90;12.13;;;6.60;43.90;;;;;;5013404;28;20494;-54
2023/03/07 00:17:47;;;;;;;16.83;10.70;;;6.70;43.90;;;;;;5013187;28;20406;-51
2023/03/07 00:20:14;;;;;;;23.47;13.30;;;6.70;43.80;;;;;;5013341;28;20409;-55
2023/03/07 00:22:40;;;;;;;14.82;10.23;;;6.80;43.70;;;;;;5013157;28;20197;-54
2023/03/07 00:25:06;;;;;;;20.20;11.70;;;6.80;43.60;;;;;;5013007;28;20191;-54
2023/03/07 00:27:33;;;;;;;23.08;12.23;;;6.80;43.40;;;;;;5013176;28;20171;-54
2023/03/07 00:29:59;;;;;;;19.67;12.18;;;6.80;43.50;;;;;;5013194;28;20694;-53
2023/03/07 00:32:25;;;;;;;22.48;12.50;;;6.80;43.30;;;;;;5013046;28;20627;-51
2023/03/07 00:34:52;;;;;;;19.92;11.15;;;6.80;43.30;;;;;;5012786;28;20194;-53
2023/03/07 00:37:17;;;;;;;16.83;11.55;;;6.80;43.10;;;;;;5013143;28;20181;-56
2023/03/07 00:39:43;;;;;;;20.10;11.10;;;6.80;43.40;;;;;;5013096;28;20214;-53
2023/03/07 00:42:09;;;;;;;16.57;11.10;;;6.80;43.50;;;;;;5013044;28;20170;-52
2023/03/07 00:44:35;;;;;;;23.07;11.83;;;6.90;43.40;;;;;;5012609;28;20717;-55
2023/03/07 00:47:01;;;;;;;15.83;10.30;;;6.90;43.30;;;;;;5012707;28;20186;-54
2023/03/07 00:49:27;;;;;;;15.70;11.40;;;7.00;43.20;;;;;;5013062;28;20413;-52
2023/03/07 00:51:53;;;;;;;18.50;12.52;;;7.10;43.10;;;;;;5012818;28;20564;-55
2023/03/07 00:54:19;;;;;;;17.10;11.60;;;7.10;43.00;;;;;;5011661;28;20186;-55
2023/03/07 00:56:44;;;;;;;17.83;12.10;;;7.10;42.80;;;;;;5012736;28;20414;-52
2023/03/07 00:59:10;;;;;;;16.43;10.37;;;7.10;42.30;;;;;;5012587;28;20511;-50
2023/03/07 01:01:37;;;;;;;17.77;10.45;;;7.10;42.60;;;;;;5012597;28;20167;-54
2023/03/07 01:04:03;;;;;;;21.27;11.80;;;7.10;42.60;;;;;;5012328;28;20197;-54
2023/03/07 01:06:31;;;;;;;22.23;12.10;;;7.00;42.40;;;;;;5012507;28;20698;-52
2023/03/07 01:08:59;;;;;;;16.52;10.23;;;7.00;42.60;;;;;;5012533;28;20261;-52
2023/03/07 01:11:26;;;;;;;18.25;11.45;;;7.00;42.60;;;;;;5012639;28;20170;-54
2023/03/07 01:13:55;;;;;;;19.33;10.95;;;7.10;42.50;;;;;;5012495;28;20289;-54
2023/03/07 01:16:24;;;;;;;17.73;10.30;;;7.10;42.30;;;;;;5012381;28;20166;-55
2023/03/07 01:18:53;;;;;;;22.45;11.57;;;7.00;42.20;;;;;;5012299;28;20217;-54
2023/03/07 01:21:27;;;;;;;17.02;10.93;;;7.10;42.40;;;;;;5012620;28;20225;-52
2023/03/07 01:23:53;;;;;;;18.92;11.60;;;7.00;42.00;;;;;;5012102;28;20195;-51
2023/03/07 01:26:22;;;;;;;17.33;10.75;;;7.00;42.20;;;;;;5012355;28;20208;-54
2023/03/07 01:28:50;;;;;;;20.13;12.52;;;7.10;42.10;;;;;;5012376;28;20175;-55
2023/03/07 01:31:16;;;;;;;20.50;12.50;;;7.10;42.10;;;;;;5012223;28;20206;-51
2023/03/07 01:33:42;;;;;;;19.23;11.73;;;7.00;41.80;;;;;;5011986;28;20291;-52
2023/03/07 01:36:32;;;;;;;16.60;11.67;;;7.10;42.10;;;;;;5012238;28;20405;-56
2023/03/07 01:39:01;;;;;;;17.05;10.57;;;7.10;42.00;;;;;;5012178;28;20195;-54
2023/03/07 01:41:31;;;;;;;17.73;12.00;;;7.10;41.80;;;;;;5012366;28;20170;-52
2023/03/07 01:44:01;;;;;;;20.40;13.32;;;7.10;42.00;;;;;;5011772;28;20201;-54
2023/03/07 01:46:31;;;;;;;18.13;11.25;;;7.10;41.90;;;;;;5012193;28;20226;-54
2023/03/07 01:49:18;;;;;;;15.18;11.25;;;7.10;42.00;;;;;;5012150;28;20167;-55
2023/03/07 01:51:49;;;;;;;18.40;12.15;;;7.10;41.90;;;;;;5012192;28;20550;-53
2023/03/07 01:54:18;;;;;;;15.82;10.30;;;7.10;41.80;;;;;;5011845;28;20190;-56
2023/03/07 01:56:45;;;;;;;16.30;10.90;;;7.00;41.70;;;;;;5011988;28;20538;-55
2023/03/07 01:59:12;;;;;;;18.75;11.30;;;7.00;41.70;;;;;;5011908;28;20214;-52
2023/03/07 02:01:38;;;;;;;18.77;11.27;;;7.00;41.60;;;;;;5012029;28;20173;-55
2023/03/07 02:04:20;;;;;;;19.33;12.25;;;6.90;41.70;;;;;;5011785;28;20187;-50
2023/03/07 02:06:45;;;;;;;14.25;10.13;;;7.00;41.70;;;;;;5014158;28;20220;-56
2023/03/07 02:09:17;;;;;;;20.60;12.73;;;7.00;41.60;;;;;;5015796;28;20261;-52
2023/03/07 02:11:44;;;;;;;19.90;12.93;;;7.00;41.50;;;;;;5015738;28;20206;-54
2023/03/07 02:14:10;;;;;;;20.40;13.10;;;7.00;41.40;;;;;;5015368;28;20285;-51
2023/03/07 02:16:37;;;;;;;17.65;12.65;;;7.00;41.30;;;;;;5015640;28;20579;-53
2023/03/07 02:19:30;;;;;;;20.00;12.63;;;7.00;41.30;;;;;;5015473;28;20333;-56
2023/03/07 02:22:10;;;;;;;20.70;12.65;;;7.00;41.20;;;;;;5012439;28;20183;-52
2023/03/07 02:24:47;;;;;;;22.25;14.35;;;7.00;41.30;;;;;;5015244;28;20221;-53
2023/03/07 02:27:13;;;;;;;20.75;14.15;;;6.90;41.40;;;;;;5015410;28;20174;-53
2023/03/07 02:29:39;;;;;;;18.25;12.70;;;7.00;41.50;;;;;;5015229;28;20221;-53
2023/03/07 02:32:06;;;;;;;18.07;11.73;;;6.90;41.40;;;;;;5015365;28;20194;-55
2023/03/07 02:34:32;;;;;;;22.20;11.82;;;6.90;41.50;;;;;;5014997;28;20429;-54
2023/03/07 02:37:19;;;;;;;23.37;13.63;;;7.00;41.50;;;;;;5015184;28;20174;-53
2023/03/07 02:39:47;;;;;;;19.67;13.55;;;7.00;41.30;;;;;;5015156;28;20449;-52
2023/03/07 02:42:34;;;;;;;19.63;11.98;;;7.00;41.30;;;;;;5015109;28;20177;-52
2023/03/07 02:45:03;;;;;;;25.17;12.63;;;7.00;41.30;;;;;;5014949;28;20286;-54
2023/03/07 02:47:29;;;;;;;26.92;13.57;;;7.00;41.10;;;;;;5014905;28;20595;-51
2023/03/07 02:49:55;;;;;;;22.80;14.97;;;7.00;41.20;;;;;;5015022;28;20651;-54
2023/03/07 02:52:21;;;;;;;16.63;11.47;;;7.10;40.80;;;;;;5014944;28;20496;-52
2023/03/07 02:54:47;;;;;;;21.90;12.63;;;7.10;40.80;;;;;;5014576;28;20198;-51
2023/03/07 02:57:14;;;;;;;17.67;11.10;;;7.10;40.60;;;;;;5014906;28;20182;-54
2023/03/07 02:59:40;;;;;;;19.08;12.10;;;7.10;40.60;;;;;;5014743;28;20464;-53
2023/03/07 03:02:06;;;;;;;18.02;11.50;;;7.10;40.70;;;;;;5015036;28;20206;-51
2023/03/07 03:04:32;;;;;;;15.90;11.17;;;7.10;40.70;;;;;;5014490;28;20214;-54
2023/03/07 03:06:57;;;;;;;19.00;12.90;;;7.10;40.70;;;;;;5014999;28;20394;-53
2023/03/07 03:09:23;;;;;;;18.60;13.90;;;7.10;40.60;;;;;;5014643;28;20225;-56
2023/03/07 03:11:49;;;;;;;20.17;13.10;;;7.10;40.30;;;;;;5014914;28;20174;-53
2023/03/07 03:14:15;;;;;;;18.47;12.10;;;7.10;40.40;;;;;;5014473;28;20782;-52
2023/03/07 03:16:41;;;;;;;19.27;12.60;;;7.10;40.00;;;;;;5014474;28;20181;-57
2023/03/07 03:19:07;;;;;;;18.63;11.38;;;7.00;39.60;;;;;;5013569;28;20216;-54
2023/03/07 03:21:33;;;;;;;17.65;12.10;;;7.00;39.30;;;;;;5014390;28;20170;-53
2023/03/07 03:24:07;;;;;;;15.57;11.02;;;6.90;39.50;;;;;;5014277;28;20215;-55
2023/03/07 03:26:33;;;;;;;15.45;11.85;;;6.90;39.70;;;;;;5014326;28;20159;-52
2023/03/07 03:28:59;;;;;;;16.02;10.32;;;7.00;39.60;;;;;;5014547;28;20179;-52
2023/03/07 03:31:27;;;;;;;17.70;10.40;;;7.10;39.50;;;;;;5014239;28;20176;-55
2023/03/07 03:33:53;;;;;;;17.25;10.40;;;7.00;38.50;;;;;;5013853;28;20206;-54
2023/03/07 03:36:19;;;;;;;15.88;11.13;;;6.90;39.30;;;;;;5014023;28;20183;-51
2023/03/07 03:38:45;;;;;;;16.80;10.93;;;6.90;39.20;;;;;;5014115;28;20201;-56
2023/03/07 03:41:14;;;;;;;17.10;9.73;;;6.80;38.80;;;;;;5014020;28;20975;-54
2023/03/07 03:43:40;;;;;;;16.10;11.18;;;6.80;38.50;;;;;;5013917;28;20429;-53
2023/03/07 03:46:06;;;;;;;19.47;12.83;;;6.70;39.30;;;;;;5013953;28;20186;-53
2023/03/07 03:48:32;;;;;;;15.00;9.90;;;6.70;39.30;;;;;;5013913;28;20797;-55
2023/03/07 03:51:04;;;;;;;17.87;11.43;;;6.70;39.00;;;;;;5013809;28;20405;-55
2023/03/07 03:53:31;;;;;;;18.35;10.95;;;6.80;39.10;;;;;;5013529;28;20429;-51
2023/03/07 03:56:07;;;;;;;19.90;11.25;;;6.80;38.70;;;;;;5013724;28;20181;-51
2023/03/07 03:58:33;;;;;;;17.15;11.15;;;6.70;38.50;;;;;;5013915;28;20194;-53
2023/03/07 04:01:04;;;;;;;16.02;10.50;;;6.60;38.20;;;;;;5013731;28;20647;-52
2023/03/07 04:03:35;;;;;;;12.55;8.82;;;6.70;39.00;;;;;;5013485;28;20205;-56
2023/03/07 04:06:03;;;;;;;13.13;9.50;;;6.70;38.30;;;;;;5013562;28;20778;-54
2023/03/07 04:08:29;;;;;;;15.60;10.40;;;6.70;38.30;;;;;;5013791;28;20236;-54
2023/03/07 04:10:55;;;;;;;14.40;9.07;;;6.70;37.90;;;;;;5013484;28;20258;-52
2023/03/07 04:13:21;;;;;;;14.73;10.00;;;6.70;38.30;;;;;;5013184;28;20226;-53
2023/03/07 04:15:46;;;;;;;14.63;9.80;;;6.80;38.10;;;;;;5013675;28;20405;-54
2023/03/07 04:18:12;;;;;;;17.07;10.93;;;6.80;38.00;;;;;;5013562;28;20294;-55
2023/03/07 04:20:38;;;;;;;14.33;9.90;;;6.80;38.00;;;;;;5013642;28;20217;-50
2023/03/07 04:23:04;;;;;;;13.63;10.07;;;6.80;37.80;;;;;;5013076;28;20406;-52
2023/03/07 04:25:30;;;;;;;13.37;9.90;;;6.90;38.40;;;;;;5013503;28;20452;-53
2023/03/07 04:27:56;;;;;;;15.80;11.55;;;6.90;38.40;;;;;;5013167;28;20167;-52
2023/03/07 04:30:22;;;;;;;16.23;9.00;;;6.90;38.10;;;;;;5012956;28;20171;-51
2023/03/07 04:32:48;;;;;;;13.40;9.60;;;6.90;38.20;;;;;;5013133;28;20225;-51
2023/03/07 04:35:13;;;;;;;17.30;11.23;;;6.90;38.30;;;;;;5013312;28;20175;-54
2023/03/07 04:37:39;;;;;;;16.17;10.07;;;6.90;38.40;;;;;;5013177;28;20183;-52
2023/03/07 04:40:05;;;;;;;14.20;9.50;;;6.90;38.50;;;;;;5013249;28;21038;-54
2023/03/07 04:42:31;;;;;;;13.70;9.75;;;6.80;38.50;;;;;;5013174;28;20198;-56
2023/03/07 04:44:57;;;;;;;15.53;10.30;;;6.90;38.40;;;;;;5012653;28;20213;-51
2023/03/07 04:47:22;;;;;;;15.37;9.00;;;6.80;38.10;;;;;;5011417;28;20232;-52
2023/03/07 04:49:48;;;;;;;18.00;10.40;;;6.80;38.40;;;;;;5012896;28;20225;-54
2023/03/07 04:52:14;;;;;;;14.47;8.97;;;6.70;38.40;;;;;;5012873;28;20162;-55
2023/03/07 04:54:39;;;;;;;14.17;9.70;;;6.70;38.50;;;;;;5012461;28;20229;-54
2023/03/07 04:57:05;;;;;;;14.97;10.23;;;6.70;38.50;;;;;;5011445;28;20210;-53
2023/03/07 04:59:31;;;;;;;14.07;10.30;;;6.70;38.80;;;;;;5012564;28;20191;-52
2023/03/07 05:01:57;;;;;;;10.37;8.87;;;6.70;38.80;;;;;;5012866;28;20170;-54
2023/03/07 05:04:22;;;;;;;16.23;8.33;;;6.70;38.70;;;;;;5012504;28;20202;-51
2023/03/07 05:06:48;;;;;;;14.20;9.03;;;6.70;38.40;;;;;;5012565;28;20638;-56
2023/03/07 05:09:14;;;;;;;13.73;9.77;;;6.80;38.60;;;;;;5012543;28;20968;-54
2023/03/07 05:11:40;;;;;;;13.57;8.20;;;6.80;38.50;;;;;;5012515;28;20182;-55
2023/03/07 05:14:05;;;;;;;13.60;9.27;;;6.80;38.60;;;;;;5012172;28;20520;-52
2023/03/07 05:16:32;;;;;;;14.23;9.70;;;6.80;38.60;;;;;;5012442;28;20175;-53
2023/03/07 05:18:59;;;;;;;14.63;9.82;;;6.90;38.60;;;;;;5012349;28;20206;-54
2023/03/07 05:21:25;;;;;;;15.15;10.20;;;6.90;38.90;;;;;;5012350;28;20457;-56
2023/03/07 05:23:51;;;;;;;13.73;8.33;;;6.90;38.80;;;;;;5012120;28;20252;-54
2023/03/07 05:26:16;;;;;;;12.40;10.30;;;7.00;38.80;;;;;;5012351;28;20158;-57
2023/03/07 05:28:42;;;;;;;16.40;10.00;;;7.00;38.80;;;;;;5012283;28;20179;-56
2023/03/07 05:31:08;;;;;;;13.80;9.50;;;7.00;38.80;;;;;;5012336;28;20209;-52
2023/03/07 05:33:33;;;;;;;13.40;9.03;;;7.00;38.60;;;;;;5011858;28;20282;-55
2023/03/07 05:36:00;;;;;;;13.60;9.37;;;7.00;38.70;;;;;;5012232;28;20443;-53
2023/03/07 05:38:26;;;;;;;14.77;10.30;;;7.00;38.70;;;;;;5012110;28;20693;-52
2023/03/07 05:40:52;;;;;;;15.70;10.73;;;7.00;38.70;;;;;;5013118;28;20253;-57
2023/03/07 05:43:18;;;;;;;12.87;9.70;;;7.00;38.50;;;;;;5016240;28;20509;-53
2023/03/07 05:45:43;;;;;;;14.40;8.83;;;7.00;38.70;;;;;;5014851;28;20182;-54
2023/03/07 05:48:09;;;;;;;15.60;10.20;;;7.00;38.80;;;;;;5016150;28;20492;-53
2023/03/07 05:50:37;;;;;;;17.13;11.10;;;7.10;38.60;;;;;;5016364;28;20174;-51
2023/03/07 05:53:03;;;;;;;19.60;12.38;;;7.10;38.70;;;;;;5015857;28;20253;-55
2023/03/07 05:55:29;;;;;;;17.83;12.20;;;7.10;38.60;;;;;;5015989;28;20205;-55
2023/03/07 05:57:55;;;;;;;16.10;10.20;;;7.00;38.60;;;;;;5016125;28;20174;-51
2023/03/07 06:00:21;;;;;;;16.20;9.50;;;7.10;38.60;;;;;;5016132;28;20413;-56
2023/03/07 06:02:47;;;;;;;14.90;9.27;;;7.00;38.00;;;;;;5015814;28;20248;-53
2023/03/07 06:05:13;;;;;;;14.57;8.87;;;7.00;38.00;;;;;;5015805;28;20202;-56
2023/03/07 06:07:38;;;;;;;15.27;10.10;;;7.00;37.00;;;;;;5016019;28;20181;-53
2023/03/07 06:10:05;;;;;;;16.83;8.87;;;7.00;37.80;;;;;;5015678;28;20570;-52
2023/03/07 06:12:31;;;;;;;19.90;9.90;;;7.10;37.90;;;;;;5015920;28;20182;-56
2023/03/07 06:14:57;;;;;;;17.20;10.33;;;7.10;37.60;;;;;;5015442;28;20240;-57
2023/03/07 06:17:23;;;;;;;18.27;11.00;;;7.20;37.60;;;;;;5015589;28;20175;-52
2023/03/07 06:19:48;;;;;;;14.33;8.87;;;7.30;38.30;;;;;;5015567;28;20555;-52
2023/03/07 06:22:14;;;;;;;14.80;9.00;;;7.30;37.20;;;;;;5015541;28;20166;-59
2023/03/07 06:24:40;;;;;;;14.27;8.93;;;7.20;37.20;;;;;;5015528;28;20290;-51
2023/03/07 06:27:05;;;;;;;13.13;9.17;;;7.20;37.00;;;;;;5015402;28;20217;-52
2023/03/07 06:29:31;;;;;;;11.63;8.57;;;8.00;38.00;;;;;;5015379;28;20417;-57
2023/03/07 06:31:57;;;;;;;13.57;8.57;;;7.20;37.80;;;;;;5015552;28;20659;-56
2023/03/07 06:34:23;;;;;;;12.83;9.10;;;7.30;37.50;;;;;;5014954;28;20245;-54
2023/03/07 06:36:48;;;;;;;13.53;8.30;;;7.20;37.80;;;;;;5015251;28;20577;-52
2023/03/07 06:39:19;;;;;;;14.90;8.80;;;7.20;38.10;;;;;;5015094;28;20481;-57
2023/03/07 06:41:47;;;;;;;13.15;7.95;;;7.30;38.10;;;;;;5015219;28;20193;-52
2023/03/07 06:44:13;;;;;;;21.85;10.18;;;7.30;38.30;;;;;;5015047;28;20202;-60
2023/03/07 06:46:39;;;;;;;14.90;9.32;;;7.30;38.30;;;;;;5014935;28;20229;-55
2023/03/07 06:49:05;;;;;;;12.80;8.03;;;7.40;38.60;;;;;;5015299;28;20179;-54
2023/03/07 06:51:30;;;;;;;12.13;8.07;;;7.40;38.50;;;;;;5014777;28;20638;-57
2023/03/07 06:53:56;;;;;;;12.47;8.27;;;7.20;38.90;;;;;;5013490;28;20433;-51
2023/03/07 06:56:22;;;;;;;16.63;10.17;;;7.20;39.10;;;;;;5014986;28;20183;-52
2023/03/07 06:58:48;;;;;;;13.50;8.97;;;7.30;39.30;;;;;;5014926;28;20548;-57
2023/03/07 07:01:18;;;;;;;12.37;8.10;;;7.50;39.50;;;;;;5014856;28;20177;-53
2023/03/07 07:03:44;;;;;;;12.65;7.90;;;7.50;39.40;;;;;;5014498;28;20186;-52
2023/03/07 07:06:10;;;;;;;13.40;8.60;;;7.50;39.30;;;;;;5014818;28;20269;-56
2023/03/07 07:08:36;;;;;;;12.03;8.50;;;7.50;39.40;;;;;;5014588;28;20409;-57
2023/03/07 07:11:01;;;;;;;13.87;8.77;;;7.60;39.40;;;;;;5014588;28;20885;-53
2023/03/07 07:13:27;;;;;;;12.63;7.53;;;7.70;39.50;;;;;;5014611;28;20429;-53
2023/03/07 07:15:53;;;;;;;14.43;8.73;;;7.80;39.30;;;;;;5014617;28;20204;-54
2023/03/07 07:18:19;;;;;;;13.97;8.57;;;7.90;39.40;;;;;;5014577;28;20632;-51
2023/03/07 07:20:44;;;;;;;12.47;8.20;;;7.90;39.40;;;;;;5014511;28;20166;-58
2023/03/07 07:23:10;;;;;;;10.43;7.13;;;7.90;39.00;;;;;;5014121;28;20531;-55
2023/03/07 07:25:38;;;;;;;13.63;8.10;;;7.90;39.30;;;;;;5014302;28;20186;-53
2023/03/07 07:28:03;;;;;;;17.60;8.48;;;7.90;39.50;;;;;;5014300;28;20413;-55
2023/03/07 07:30:29;;;;;;;11.50;7.47;;;8.00;39.30;;;;;;5014278;28;20175;-51
2023/03/07 07:32:55;;;;;;;10.90;6.73;;;8.00;39.10;;;;;;5013965;28;20175;-51
2023/03/07 07:35:21;;;;;;;13.80;8.00;;;8.00;38.90;;;;;;5014197;28;20535;-54
2023/03/07 07:37:46;;;;;;;10.48;8.50;;;8.00;39.20;;;;;;5014143;28;20258;-53
2023/03/07 07:40:13;;;;;;;14.03;8.17;;;8.10;39.30;;;;;;5013902;28;20790;-53
2023/03/07 07:42:39;;;;;;;13.40;7.80;;;8.20;38.90;;;;;;5014210;28;20808;-56
2023/03/07 07:45:05;;;;;;;12.55;7.80;;;8.20;38.90;;;;;;5013762;28;20190;-53
2023/03/07 07:47:31;;;;;;;9.93;6.40;;;8.20;38.90;;;;;;5013904;28;20678;-52
2023/03/07 07:49:57;;;;;;;10.23;7.67;;;8.20;39.10;;;;;;5013988;28;20267;-53
2023/03/07 07:52:23;;;;;;;10.80;6.37;;;8.20;39.40;;;;;;5013778;28;20410;-54
2023/03/07 07:54:48;;;;;;;10.03;7.13;;;8.10;39.00;;;;;;5013532;28;20203;-56
2023/03/07 07:57:14;;;;;;;11.00;7.27;;;7.90;40.30;;;;;;5013864;28;20179;-52
2023/03/07 07:59:40;;;;;;;11.80;7.00;;;7.90;41.00;;;;;;5013686;28;20256;-55
2023/03/07 08:02:08;;;;;;;9.63;6.77;;;7.90;41.40;;;;;;5013666;28;20657;-53
2023/03/07 08:04:34;;;;;;;9.07;6.35;;;8.00;41.10;;;;;;5012952;28;20672;-52
2023/03/07 08:07:00;;;;;;;10.30;7.43;;;8.20;41.10;;;;;;5013600;28;20184;-51
2023/03/07 08:09:26;;;;;;;10.30;6.20;;;8.20;41.40;;;;;;5013504;28;20174;-55
2023/03/07 08:11:51;;;;;;;8.40;5.70;;;8.30;41.30;;;;;;5013764;28;20616;-55
2023/03/07 08:14:17;;;;;;;10.23;6.23;;;8.20;41.40;;;;;;5013177;28;20229;-52
2023/03/07 08:16:43;;;;;;;7.30;5.30;;;8.30;41.60;;;;;;5013642;28;20225;-52
2023/03/07 08:19:09;;;;;;;11.37;6.90;;;8.20;41.20;;;;;;5013348;28;20282;-51
2023/03/07 08:21:35;;;;;;;9.68;5.88;;;8.40;41.70;;;;;;5013220;28;20259;-56
2023/03/07 08:24:01;;;;;;;8.10;6.13;;;8.40;41.30;;;;;;5013021;28;20227;-58
2023/03/07 08:26:27;;;;;;;7.22;4.75;;;8.50;41.20;;;;;;5013177;28;20174;-52
2023/03/07 08:28:53;;;;;;;7.20;4.80;;;8.50;41.10;;;;;;5013366;28;20182;-53
2023/03/07 08:31:23;;;;;;;7.87;5.17;;;8.50;41.20;;;;;;5013199;28;20172;-57
2023/03/07 08:33:50;;;;;;;8.45;5.53;;;8.60;41.10;;;;;;5013250;28;20951;-52
2023/03/07 08:36:17;;;;;;;8.45;5.60;;;8.50;40.80;;;;;;5013123;28;20174;-57
2023/03/07 08:38:42;;;;;;;9.05;4.95;;;8.40;41.10;;;;;;5012869;28;20260;-53
2023/03/07 08:41:08;;;;;;;10.53;5.63;;;8.50;41.20;;;;;;5013012;28;20202;-53
2023/03/07 08:43:36;;;;;;;5.18;4.50;;;8.60;41.20;;;;;;5012649;28;20654;-56
2023/03/07 08:46:02;;;;;;;8.85;5.32;;;8.60;40.50;;;;;;5012970;28;20202;-51
2023/03/07 08:48:28;;;;;;;9.23;5.13;;;8.60;40.80;;;;;;5012835;28;20270;-51
2023/03/07 08:50:54;;;;;;;9.68;5.18;;;8.80;41.10;;;;;;5012640;28;20410;-54
2023/03/07 08:53:20;;;;;;;6.80;4.18;;;9.00;40.30;;;;;;5012741;28;20202;-53
2023/03/07 08:55:46;;;;;;;10.55;5.85;;;9.00;39.30;;;;;;5012694;28;20248;-55
2023/03/07 08:58:12;;;;;;;9.15;5.28;;;9.00;39.50;;;;;;5012639;28;20258;-52
2023/03/07 09:00:38;;;;;;;8.55;5.00;;;8.90;39.30;;;;;;5012694;28;20194;-56
2023/03/07 09:03:05;;;;;;;8.73;5.38;;;9.00;38.80;;;;;;5012365;28;20624;-54
2023/03/07 09:05:31;;;;;;;7.32;4.35;;;9.00;39.50;;;;;;5012697;28;20217;-52
2023/03/07 09:07:57;;;;;;;6.38;4.70;;;9.00;39.00;;;;;;5012621;28;20292;-57
2023/03/07 09:10:25;;;;;;;7.40;4.00;;;9.10;39.10;;;;;;5012517;28;20182;-55
2023/03/07 09:12:50;;;;;;;7.13;4.82;;;9.00;37.90;;;;;;5012219;28;20410;-54
2023/03/07 09:15:17;;;;;;;5.90;4.40;;;8.90;38.70;;;;;;5011891;28;20201;-52
2023/03/07 09:17:43;;;;;;;5.68;3.97;;;9.00;38.80;;;;;;5012418;28;20211;-55
2023/03/07 09:20:10;;;;;;;6.90;5.63;;;9.10;38.90;;;;;;5012279;28;20226;-56
2023/03/07 09:22:36;;;;;;;6.40;4.50;;;9.10;38.20;;;;;;5012385;28;20174;-55
2023/03/07 09:25:03;;;;;;;8.75;5.10;;;9.30;38.50;;;;;;5012088;28;20204;-51
2023/03/07 09:27:28;;;;;;;8.70;5.25;;;9.40;38.20;;;;;;5012280;28;20173;-51
2023/03/07 09:29:54;;;;;;;7.97;4.20;;;9.40;38.00;;;;;;5012286;28;20183;-55
2023/03/07 09:32:20;;;;;;;6.43;4.30;;;9.50;37.20;;;;;;5012335;28;20181;-51
2023/03/07 09:34:46;;;;;;;5.87;4.03;;;9.30;37.60;;;;;;5011872;28;20327;-52
2023/03/07 09:37:12;;;;;;;6.50;3.60;;;9.30;37.90;;;;;;5012302;28;20178;-57
2023/03/07 09:39:37;;;;;;;6.53;3.93;;;9.40;37.70;;;;;;5012219;28;20212;-54
2023/03/07 09:42:21;;;;;;;5.90;4.27;;;9.40;37.90;;;;;;5012232;28;20415;-58
2023/03/07 09:45:20;;;;;;;10.82;5.60;;;9.30;37.30;;;;;;5011843;28;20247;-51
2023/03/07 09:48:01;;;;;;;4.57;3.30;;;9.30;37.80;;;;;;5012161;28;20163;-52
2023/03/07 09:50:27;;;;;;;18.77;4.38;;;9.40;37.00;;;;;;5012101;28;20177;-52
2023/03/07 09:52:55;;;;;;;6.73;5.37;;;9.40;38.00;;;;;;5011702;28;20178;-55
2023/03/07 09:55:22;;;;;;;5.75;4.47;;;9.40;38.20;;;;;;5012086;28;20184;-53
2023/03/07 09:57:50;;;;;;;6.38;4.40;;;9.50;37.70;;;;;;5011996;28;20177;-51
2023/03/07 10:00:28;;;;;;;8.68;5.55;;;9.60;38.00;;;;;;5012227;28;20208;-56
2023/03/07 10:03:01;;;;;;;4.88;3.55;;;9.60;37.00;;;;;;5011569;28;20198;-56
2023/03/07 10:05:40;;;;;;;7.35;4.45;;;9.60;37.40;;;;;;5012075;28;20250;-51
2023/03/07 10:08:15;;;;;;;7.60;5.10;;;9.70;37.20;;;;;;5011886;28;20178;-54
2023/03/07 10:11:14;;;;;;;9.70;5.97;;;9.80;37.60;;;;;;5011951;28;20252;-53
2023/03/07 10:13:46;;;;;;;5.95;4.50;;;9.80;37.30;;;;;;5011946;28;20202;-55
2023/03/07 10:16:32;;;;;;;21.20;5.47;;;9.60;37.10;;;;;;5011845;28;20662;-51
2023/03/07 10:19:38;;;;;;;7.72;4.40;;;9.50;37.20;;;;;;5011752;28;20336;-57
2023/03/07 10:22:31;;;;;;;8.23;5.75;;;9.60;37.50;;;;;;5011850;28;20709;-50
2023/03/07 10:25:12;;;;;;;8.20;5.45;;;9.70;37.40;;;;;;5011602;28;20708;-55
2023/03/07 10:27:38;;;;;;;7.70;5.05;;;9.70;37.30;;;;;;5013793;28;20231;-55
2023/03/07 10:30:14;;;;;;;9.35;6.07;;;9.80;37.10;;;;;;5015376;28;20228;-53
2023/03/07 10:32:54;;;;;;;10.02;6.18;;;9.80;37.30;;;;;;5015395;28;20213;-56
2023/03/07 10:35:23;;;;;;;10.43;5.05;;;9.90;37.00;;;;;;5015444;28;20217;-54
2023/03/07 10:38:18;;;;;;;8.90;5.80;;;10.00;37.10;;;;;;5015242;28;20651;-54
2023/03/07 10:41:01;;;;;;;7.55;5.68;;;10.00;36.30;;;;;;5015263;28;20286;-52
2023/03/07 10:43:32;;;;;;;9.98;6.72;;;9.90;37.00;;;;;;5014907;28;20277;-52
2023/03/07 10:46:11;;;;;;;6.18;4.60;;;9.90;36.40;;;;;;5015078;28;20186;-52
2023/03/07 10:48:45;;;;;;;7.18;6.00;;;10.00;36.50;;;;;;5015112;28;20649;-53
2023/03/07 10:51:43;;;;;;;8.32;5.43;;;10.00;36.50;;;;;;5015376;28;20264;-53
2023/03/07 10:54:28;;;;;;;8.10;6.13;;;10.20;36.40;;;;;;5014810;28;20651;-58
2023/03/07 10:57:15;;;;;;;8.63;6.25;;;10.30;35.90;;;;;;5014856;28;20638;-52
2023/03/07 10:59:43;;;;;;;6.30;4.70;;;10.30;35.50;;;;;;5014872;28;20241;-53
2023/03/07 11:02:21;;;;;;;10.68;6.85;;;10.10;35.60;;;;;;5014711;28;20170;-52
2023/03/07 11:04:47;;;;;;;5.95;5.10;;;10.20;35.30;;;;;;5014741;28;20186;-55
2023/03/07 11:07:27;;;;;;;8.70;5.77;;;10.20;35.90;;;;;;5014739;28;20262;-52
2023/03/07 11:09:53;;;;;;;7.03;5.28;;;10.40;35.60;;;;;;5014972;28;20224;-53
2023/03/07 11:12:22;;;;;;;11.15;6.82;;;10.60;34.60;;;;;;5014631;28;20178;-56
2023/03/07 11:14:49;;;;;;;7.13;5.40;;;10.60;34.70;;;;;;5014302;28;20190;-53
2023/03/07 11:17:25;;;;;;;11.30;5.75;;;10.90;34.70;;;;;;5014742;28;20185;-58
2023/03/07 11:19:56;;;;;;;8.85;6.13;;;11.00;33.90;;;;;;5014610;28;20635;-51
2023/03/07 11:22:35;;;;;;;9.40;5.95;;;11.20;33.70;;;;;;5014450;28;20217;-52
2023/03/07 11:25:33;;;;;;;9.65;6.15;;;11.20;34.00;;;;;;5014005;28;20675;-58
2023/03/07 11:27:59;;;;;;;7.05;5.25;;;11.30;33.20;;;;;;5010389;28;20175;-53
2023/03/07 11:30:33;;;;;;;10.50;5.53;;;11.30;32.50;;;;;;5014281;28;20651;-53
2023/03/07 11:33:09;;;;;;;8.15;6.07;;;11.20;33.50;;;;;;5013941;28;20192;-57
2023/03/07 11:35:47;;;;;;;7.40;4.53;;;11.00;33.10;;;;;;5014114;28;20183;-54
2023/03/07 11:38:39;;;;;;;8.80;7.07;;;11.10;33.50;;;;;;5013439;28;20179;-54
2023/03/07 11:41:10;;;;;;;9.55;5.97;;;11.20;33.60;;;;;;5014137;28;20169;-55
2023/03/07 11:43:57;;;;;;;6.60;4.85;;;11.00;33.10;;;;;;5013818;28;20190;-54
2023/03/07 11:47:00;;;;;;;8.65;5.70;;;10.90;34.10;;;;;;5013921;28;20183;-53
2023/03/07 11:49:53;;;;;;;8.15;5.82;;;10.80;34.30;;;;;;5013905;28;20177;-54
2023/03/07 11:52:49;;;;;;;6.25;4.85;;;10.90;34.10;;;;;;5014131;28;20249;-57
2023/03/07 11:55:47;;;;;;;12.02;5.95;;;10.70;34.20;;;;;;5013784;28;20254;-54
2023/03/07 11:58:27;;;;;;;8.48;6.40;;;10.50;35.00;;;;;;4994637;28;20193;-52
2023/03/07 12:01:01;;;;;;;8.60;5.60;;;10.60;34.00;;;;;;5013700;28;20693;-55
2023/03/07 12:03:31;;;;;;;5.68;4.45;;;10.40;34.10;;;;;;5013413;28;20293;-53
2023/03/07 12:06:25;;;;;;;6.45;5.00;;;10.50;34.80;;;;;;5013831;28;20174;-55
2023/03/07 12:09:12;;;;;;;9.20;5.75;;;10.70;34.30;;;;;;5013502;28;20424;-54
2023/03/07 12:12:01;;;;;;;6.30;4.95;;;10.70;33.80;;;;;;5013527;28;20535;-55
2023/03/07 12:14:52;;;;;;;10.35;6.00;;;10.90;33.40;;;;;;5013260;28;20265;-52
2023/03/07 12:17:36;;;;;;;25.13;7.25;;;10.70;32.30;;;;;;5013343;28;20196;-54
2023/03/07 12:20:05;;;;;;;6.50;5.18;;;10.80;32.70;;;;;;5013356;28;20289;-58
2023/03/07 12:22:46;;;;;;;7.05;5.32;;;10.70;32.90;;;;;;5013565;28;20183;-51
2023/03/07 12:25:23;;;;;;;6.90;5.32;;;11.00;33.70;;;;;;5013241;28;20785;-57
2023/03/07 12:28:25;;;;;;;9.00;4.97;;;11.10;33.10;;;;;;5013245;28;20623;-51
2023/03/07 12:31:04;;;;;;;13.38;5.55;;;11.20;31.70;;;;;;5013180;28;20205;-53
2023/03/07 12:33:48;;;;;;;9.13;5.55;;;11.20;32.00;;;;;;5012860;28;20268;-52
2023/03/07 12:36:26;;;;;;;15.85;5.38;;;11.10;32.00;;;;;;5013103;28;20167;-53
2023/03/07 12:39:04;;;;;;;9.70;5.63;;;11.20;32.50;;;;;;5012947;28;20759;-56
2023/03/07 12:41:42;;;;;;;5.55;4.10;;;11.30;32.70;;;;;;5013068;28;20167;-53
2023/03/07 12:44:40;;;;;;;12.15;5.22;;;11.30;31.90;;;;;;5012662;28;20203;-51
2023/03/07 12:47:39;;;;;;;6.68;4.40;;;11.40;32.30;;;;;;5011236;28;20203;-55
2023/03/07 12:50:17;;;;;;;7.32;4.97;;;11.70;31.70;;;;;;5002398;28;20205;-54
2023/03/07 12:53:34;;;;;;;9.20;4.97;;;11.80;30.70;;;;;;5012712;28;20186;-56
2023/03/07 12:56:19;;;;;;;7.93;4.97;;;12.10;30.80;;;;;;4990953;28;20247;-57
2023/03/07 12:59:11;;;;;;;7.90;4.78;;;12.40;29.40;;;;;;4990601;28;20278;-54
2023/03/07 13:02:03;;;;;;;7.65;5.78;;;12.80;30.80;;;;;;4990785;28;20195;-52